Time;durP1;ratioP1;P1;durP2;ratioP2;P2;SDS_P1;SDS_P2;PMS_P1;PMS_P2;Temp;Humidity;BMP_temperature;BMP_pressure;BME280_temperature;BME280_humidity;BME280_pressure;Samples;Min_cycle;Max_cycle;Signal;HPM_P1;HPM_P2
2023/05/09 00:01:58;;;;;;;2.72;2.53;;;;;;;15.31;80.69;101010.94;5037239;28;20044;-74
2023/05/09 00:04:24;;;;;;;4.95;2.70;;;;;;;15.35;79.82;101001.75;5038880;28;20181;-73
2023/05/09 00:06:50;;;;;;;3.60;2.83;;;;;;;15.40;79.25;101001.25;5040766;28;20363;-73
2023/05/09 00:09:15;;;;;;;6.65;2.70;;;;;;;15.33;81.47;101003.72;5038649;28;20036;-73
2023/05/09 00:11:41;;;;;;;3.70;2.97;;;;;;;15.25;80.74;100996.63;5038447;28;20029;-74
2023/05/09 00:14:06;;;;;;;3.42;3.13;;;;;;;15.23;81.07;100989.91;5039273;28;20034;-74
2023/05/09 00:16:32;;;;;;;4.28;3.45;;;;;;;15.24;80.16;100984.50;5039102;28;20040;-74
2023/05/09 00:18:58;;;;;;;3.92;3.33;;;;;;;15.28;79.47;100979.75;5041523;28;20099;-73
2023/05/09 00:21:24;;;;;;;3.85;3.20;;;;;;;15.31;78.38;100974.16;5038576;28;20785;-74
2023/05/09 00:23:49;;;;;;;4.10;3.40;;;;;;;15.31;78.59;100974.16;5041032;28;20471;-74
2023/05/09 00:26:16;;;;;;;3.88;3.55;;;;;;;15.31;78.10;100968.91;5037727;28;20041;-74
2023/05/09 00:28:41;;;;;;;3.05;2.78;;;;;;;15.35;77.31;100964.16;5039356;28;20045;-75
2023/05/09 00:31:07;;;;;;;6.88;3.28;;;;;;;15.34;77.31;100960.72;5037314;28;20037;-75
2023/05/09 00:33:32;;;;;;;3.47;3.00;;;;;;;15.33;77.65;100959.06;5038276;28;20138;-74
2023/05/09 00:35:57;;;;;;;6.60;3.50;;;;;;;15.26;78.03;100963.34;5036963;28;20036;-73
2023/05/09 00:38:23;;;;;;;4.03;3.33;;;;;;;15.24;80.30;100966.13;5037407;28;20044;-74
2023/05/09 00:40:48;;;;;;;5.57;3.40;;;;;;;15.12;83.35;100970.03;5037660;28;20478;-73
2023/05/09 00:43:15;;;;;;;3.63;3.15;;;;;;;14.93;86.97;100972.97;5036491;28;20056;-74
2023/05/09 00:45:41;;;;;;;3.35;3.03;;;;;;;14.78;90.24;100975.38;5036579;28;20034;-75
2023/05/09 00:48:07;;;;;;;4.97;3.28;;;;;;;14.70;92.41;100972.72;5037483;28;20048;-75
2023/05/09 00:50:32;;;;;;;7.10;3.60;;;;;;;14.63;94.06;100969.13;5037577;28;20115;-75
2023/05/09 00:52:58;;;;;;;4.00;3.70;;;;;;;14.55;95.64;100972.53;5036781;28;20032;-75
2023/05/09 00:55:23;;;;;;;4.00;3.67;;;;;;;14.48;97.04;100960.22;5036542;28;20029;-75
2023/05/09 00:57:49;;;;;;;4.03;3.22;;;;;;;14.40;98.66;100963.56;5040022;28;20112;-75
2023/05/09 01:00:15;;;;;;;4.57;4.05;;;;;;;14.38;98.99;100964.72;5036590;28;20025;-74
2023/05/09 01:02:47;;;;;;;4.30;3.38;;;;;;;14.34;99.74;100958.13;5037226;28;20017;-75
2023/05/09 01:05:14;;;;;;;4.53;4.03;;;;;;;14.32;100.00;100954.84;5034961;28;20099;-75
2023/05/09 01:07:45;;;;;;;4.85;3.03;;;;;;;14.26;100.00;100957.13;5038911;28;20033;-75
2023/05/09 01:10:40;;;;;;;3.80;3.50;;;;;;;14.23;100.00;100959.22;5038522;28;20098;-75
2023/05/09 01:13:18;;;;;;;4.88;3.83;;;;;;;14.16;100.00;100951.19;5037720;28;20049;-75
2023/05/09 01:16:07;;;;;;;3.78;3.47;;;;;;;14.12;100.00;100949.88;5039880;28;20064;-74
2023/05/09 01:18:46;;;;;;;4.40;4.00;;;;;;;14.10;100.00;100957.06;5017129;28;20056;-74
2023/05/09 01:21:26;;;;;;;3.97;3.67;;;;;;;14.06;100.00;100945.25;5037969;28;20155;-73
2023/05/09 01:23:54;;;;;;;4.20;3.88;;;;;;;14.03;100.00;100948.16;5040554;28;20037;-74
2023/05/09 01:26:42;;;;;;;4.50;4.07;;;;;;;13.98;100.00;100942.56;5037774;28;20033;-75
2023/05/09 01:29:20;;;;;;;6.13;3.63;;;;;;;13.98;100.00;100934.72;5039056;28;20048;-74
2023/05/09 01:31:47;;;;;;;5.03;3.35;;;;;;;14.02;100.00;100933.44;5037438;28;20433;-74
2023/05/09 01:34:16;;;;;;;4.80;4.40;;;;;;;14.05;100.00;100932.28;5036612;28;20041;-74
2023/05/09 01:36:43;;;;;;;4.57;4.18;;;;;;;14.05;100.00;100934.91;5036275;28;20564;-74
2023/05/09 01:39:12;;;;;;;5.60;3.75;;;;;;;14.03;100.00;100929.81;5037808;28;20060;-74
2023/05/09 01:41:38;;;;;;;4.65;4.10;;;;;;;13.99;100.00;100928.50;5030663;28;20166;-74
2023/05/09 01:44:08;;;;;;;5.20;4.70;;;;;;;13.97;100.00;100925.22;5035993;28;20025;-73
2023/05/09 01:46:35;;;;;;;4.70;4.30;;;;;;;13.92;100.00;100935.31;5034913;28;20627;-74
2023/05/09 01:49:01;;;;;;;5.13;4.72;;;;;;;13.90;100.00;100935.47;5037083;28;20059;-74
2023/05/09 01:51:30;;;;;;;4.45;4.03;;;;;;;13.88;100.00;100934.81;5036216;28;20049;-74
2023/05/09 01:53:57;;;;;;;5.13;4.63;;;;;;;13.84;100.00;100930.03;5034362;28;20041;-75
2023/05/09 01:56:24;;;;;;;4.70;4.30;;;;;;;13.94;100.00;100926.34;5036043;28;20029;-74
2023/05/09 01:58:51;;;;;;;4.57;4.18;;;;;;;13.97;100.00;100927.81;5034508;28;20048;-73
2023/05/09 02:01:18;;;;;;;5.22;4.43;;;;;;;13.98;100.00;100918.16;5037825;28;20531;-74
2023/05/09 02:03:46;;;;;;;5.60;4.63;;;;;;;13.95;100.00;100919.31;5035371;28;20037;-74
2023/05/09 02:06:12;;;;;;;5.07;4.65;;;;;;;13.94;100.00;100923.72;5033460;28;20045;-74
2023/05/09 02:08:38;;;;;;;4.68;4.28;;;;;;;13.89;100.00;100925.16;5035968;28;20078;-74
2023/05/09 02:11:04;;;;;;;6.85;4.45;;;;;;;13.94;100.00;100917.66;5037361;28;20516;-73
2023/05/09 02:13:29;;;;;;;4.88;4.45;;;;;;;13.96;100.00;100920.94;5035224;28;20037;-73
2023/05/09 02:15:56;;;;;;;4.40;4.00;;;;;;;13.98;100.00;100916.38;5035424;28;20030;-73
2023/05/09 02:18:21;;;;;;;5.45;4.38;;;;;;;13.95;100.00;100911.44;5037449;28;20486;-73
2023/05/09 02:20:47;;;;;;;4.22;3.90;;;;;;;13.92;100.00;100924.84;5036924;28;20099;-73
2023/05/09 02:23:13;;;;;;;4.47;4.07;;;;;;;13.90;100.00;100925.00;5031829;28;20111;-73
2023/05/09 02:25:39;;;;;;;5.65;5.05;;;;;;;13.89;100.00;100925.97;5034317;28;20466;-73
2023/05/09 02:28:07;;;;;;;4.80;4.30;;;;;;;13.90;100.00;100932.03;5035846;28;20036;-73
2023/05/09 02:30:39;;;;;;;5.68;4.75;;;;;;;13.88;100.00;100926.94;5033226;28;20048;-75
2023/05/09 02:33:07;;;;;;;5.00;4.32;;;;;;;13.88;100.00;100931.38;5038449;28;20037;-75
2023/05/09 02:35:33;;;;;;;5.22;4.72;;;;;;;13.87;100.00;100934.97;5032121;28;21978;-75
2023/05/09 02:37:59;;;;;;;6.13;4.35;;;;;;;13.86;100.00;100933.31;5036770;28;20091;-75
2023/05/09 02:40:29;;;;;;;5.20;4.40;;;;;;;13.81;100.00;100925.09;5034992;28;20029;-75
2023/05/09 02:42:55;;;;;;;4.85;4.38;;;;;;;13.76;100.00;100922.94;5035639;28;20024;-75
2023/05/09 02:45:21;;;;;;;5.50;4.93;;;;;;;13.73;100.00;100927.66;5037151;28;20045;-75
2023/05/09 02:47:46;;;;;;;4.57;4.18;;;;;;;13.71;100.00;100929.63;5038509;28;20100;-74
2023/05/09 02:50:12;;;;;;;4.97;4.50;;;;;;;13.69;100.00;100931.59;5039183;28;20457;-74
2023/05/09 02:52:37;;;;;;;4.85;4.32;;;;;;;13.68;100.00;100928.16;5044658;28;20048;-74
2023/05/09 02:55:06;;;;;;;6.82;5.10;;;;;;;13.69;100.00;100932.41;5035710;28;20049;-73
2023/05/09 02:57:31;;;;;;;6.50;4.10;;;;;;;13.68;100.00;100935.19;5034913;28;20443;-74
2023/05/09 02:59:57;;;;;;;5.03;4.30;;;;;;;13.65;100.00;100925.00;5038090;28;20035;-74
2023/05/09 03:02:22;;;;;;;6.80;4.43;;;;;;;13.65;100.00;100930.25;5035563;28;20037;-74
2023/05/09 03:04:48;;;;;;;5.68;4.35;;;;;;;13.66;100.00;100929.28;5034997;28;20037;-74
2023/05/09 03:07:13;;;;;;;7.20;4.93;;;;;;;13.63;100.00;100929.59;5034852;28;20037;-74
2023/05/09 03:09:39;;;;;;;4.85;4.45;;;;;;;13.64;100.00;100933.84;5036197;28;20135;-74
2023/05/09 03:12:05;;;;;;;5.05;4.55;;;;;;;13.66;100.00;100939.75;5033858;28;20040;-74
2023/05/09 03:14:30;;;;;;;5.47;4.28;;;;;;;13.65;100.00;100933.69;5040739;28;20476;-74
2023/05/09 03:16:56;;;;;;;5.95;4.30;;;;;;;13.66;100.00;100934.50;5049277;28;20033;-74
2023/05/09 03:19:21;;;;;;;4.70;4.20;;;;;;;13.64;100.00;100939.91;5037767;28;20162;-74
2023/05/09 03:21:47;;;;;;;4.93;4.50;;;;;;;13.61;100.00;100940.22;5035546;28;20123;-74
2023/05/09 03:24:12;;;;;;;4.65;4.25;;;;;;;13.59;100.00;100937.75;5035069;28;20035;-74
2023/05/09 03:26:38;;;;;;;5.90;5.15;;;;;;;13.59;100.00;100936.91;5034319;28;20044;-73
2023/05/09 03:29:03;;;;;;;5.70;4.40;;;;;;;13.60;100.00;100934.16;5035825;28;20413;-74
2023/05/09 03:31:29;;;;;;;7.70;4.65;;;;;;;13.61;100.00;100933.19;5034794;28;20173;-74
2023/05/09 03:33:54;;;;;;;4.53;4.10;;;;;;;13.60;100.00;100936.75;5033734;28;20040;-74
2023/05/09 03:36:20;;;;;;;4.72;4.22;;;;;;;13.60;100.00;100934.16;5036806;28;20137;-74
2023/05/09 03:38:45;;;;;;;6.07;5.40;;;;;;;13.61;100.00;100935.78;5037729;28;20029;-74
2023/05/09 03:41:12;;;;;;;7.80;5.15;;;;;;;13.61;100.00;100935.78;5039522;28;20040;-73
2023/05/09 03:43:38;;;;;;;7.43;5.03;;;;;;;13.56;100.00;100938.03;5036950;28;20033;-73
2023/05/09 03:46:03;;;;;;;7.60;5.20;;;;;;;13.60;100.00;100938.56;5038470;28;20032;-73
2023/05/09 03:48:28;;;;;;;7.57;4.72;;;;;;;13.57;100.00;100929.22;5034840;28;20040;-74
2023/05/09 03:50:54;;;;;;;5.47;4.93;;;;;;;13.57;100.00;100938.88;5037796;28;20045;-73
2023/05/09 03:53:19;;;;;;;4.82;4.35;;;;;;;13.54;100.00;100947.84;5033363;28;20397;-73
2023/05/09 03:55:45;;;;;;;5.80;4.28;;;;;;;13.53;100.00;100935.72;5036511;28;20098;-73
2023/05/09 03:58:11;;;;;;;5.30;4.80;;;;;;;13.55;100.00;100935.56;5039499;28;20110;-73
2023/05/09 04:00:36;;;;;;;7.63;4.15;;;;;;;13.53;100.00;100929.66;5035243;28;20386;-73
2023/05/09 04:03:03;;;;;;;4.55;4.10;;;;;;;13.50;100.00;100927.34;5041670;28;20029;-73
2023/05/09 04:05:28;;;;;;;7.22;5.55;;;;;;;13.49;100.00;100930.94;5038396;28;20032;-74
2023/05/09 04:07:54;;;;;;;5.40;4.65;;;;;;;13.51;100.00;100936.84;5039799;28;20034;-73
2023/05/09 04:10:19;;;;;;;6.55;4.20;;;;;;;13.49;100.00;100929.16;5038212;28;20131;-73
2023/05/09 04:12:45;;;;;;;5.72;4.72;;;;;;;13.53;100.00;100933.09;5035524;28;20039;-73
2023/05/09 04:15:10;;;;;;;5.93;4.90;;;;;;;13.56;100.00;100931.97;5038978;28;20033;-74
2023/05/09 04:17:35;;;;;;;5.55;4.82;;;;;;;13.57;100.00;100933.63;5037232;28;20040;-74
2023/05/09 04:20:02;;;;;;;7.75;5.07;;;;;;;13.60;100.00;100942.00;5037882;28;20371;-73
2023/05/09 04:22:27;;;;;;;5.22;4.72;;;;;;;13.64;100.00;100933.84;5037177;28;20124;-76
2023/05/09 04:24:53;;;;;;;6.32;5.35;;;;;;;13.66;100.00;100942.38;5037469;28;20108;-76
2023/05/09 04:27:18;;;;;;;6.28;4.90;;;;;;;13.69;100.00;100944.69;5037964;28;20113;-76
2023/05/09 04:29:43;;;;;;;7.63;5.50;;;;;;;13.60;100.00;100946.41;5035869;28;20572;-77
2023/05/09 04:32:09;;;;;;;5.95;5.13;;;;;;;13.61;100.00;100941.03;5036684;28;20044;-76
2023/05/09 04:34:34;;;;;;;6.28;4.85;;;;;;;13.73;100.00;100946.00;5037996;28;20136;-76
2023/05/09 04:37:00;;;;;;;7.97;5.68;;;;;;;13.75;100.00;100942.25;5035660;28;20045;-76
2023/05/09 04:39:25;;;;;;;9.00;5.50;;;;;;;13.77;100.00;100944.72;5037360;28;20029;-76
2023/05/09 04:41:51;;;;;;;6.72;5.18;;;;;;;13.80;100.00;100944.41;5037893;28;20029;-75
2023/05/09 04:44:17;;;;;;;8.98;5.40;;;;;;;13.86;100.00;100943.78;5034273;28;20122;-75
2023/05/09 04:46:42;;;;;;;6.07;5.50;;;;;;;13.85;100.00;100937.72;5035677;28;20040;-75
2023/05/09 04:49:08;;;;;;;6.10;5.35;;;;;;;13.87;100.00;100948.88;5036837;28;20052;-75
2023/05/09 04:51:33;;;;;;;10.82;6.05;;;;;;;13.86;100.00;100955.09;5046559;28;20048;-76
2023/05/09 04:53:59;;;;;;;8.40;5.55;;;;;;;13.84;100.00;100962.28;5045010;28;20030;-76
2023/05/09 04:56:25;;;;;;;7.57;5.13;;;;;;;13.85;100.00;100957.88;5045600;28;20045;-76
2023/05/09 04:58:51;;;;;;;6.05;5.07;;;;;;;13.81;100.00;100957.34;5046976;28;20033;-76
2023/05/09 05:01:17;;;;;;;6.35;5.75;;;;;;;13.78;100.00;100967.31;5043227;28;20033;-76
2023/05/09 05:03:43;;;;;;;7.13;5.38;;;;;;;13.76;100.00;100969.25;5051491;28;20048;-74
2023/05/09 05:06:08;;;;;;;10.77;5.75;;;;;;;13.78;100.00;100972.53;5051393;28;20029;-72
2023/05/09 05:08:34;;;;;;;6.03;5.22;;;;;;;13.79;100.00;100974.19;5040933;28;20469;-72
2023/05/09 05:10:59;;;;;;;9.02;5.85;;;;;;;13.81;100.00;100972.25;5053718;28;20105;-72
2023/05/09 05:13:25;;;;;;;6.45;5.70;;;;;;;13.83;100.00;100972.91;5053847;28;20129;-77
2023/05/09 05:15:51;;;;;;;6.88;5.57;;;;;;;13.89;100.00;100975.75;5040973;28;20032;-76
2023/05/09 05:18:16;;;;;;;6.32;5.10;;;;;;;13.98;100.00;100978.41;5042717;28;20033;-76
2023/05/09 05:20:42;;;;;;;5.47;4.95;;;;;;;14.04;100.00;100981.25;5047670;28;20031;-76
2023/05/09 05:23:08;;;;;;;9.77;5.38;;;;;;;14.08;100.00;100984.38;5049974;28;20032;-76
2023/05/09 05:25:34;;;;;;;7.45;5.35;;;;;;;14.10;100.00;100985.06;5044023;28;20037;-76
2023/05/09 05:27:59;;;;;;;8.27;5.43;;;;;;;14.20;100.00;100989.19;5042996;28;20045;-76
2023/05/09 05:30:25;;;;;;;6.28;4.57;;;;;;;14.27;100.00;100990.22;5036540;28;20103;-76
2023/05/09 05:32:50;;;;;;;6.75;5.20;;;;;;;14.33;100.00;100988.78;5040333;28;20041;-77
2023/05/09 05:35:16;;;;;;;5.70;5.20;;;;;;;14.40;100.00;100984.56;5037472;28;20993;-76
2023/05/09 05:37:43;;;;;;;7.22;4.95;;;;;;;14.44;100.00;100975.44;5041702;28;20061;-75
2023/05/09 05:40:08;;;;;;;6.05;5.10;;;;;;;14.53;100.00;100978.91;5054679;28;20082;-76
2023/05/09 05:42:34;;;;;;;6.10;5.30;;;;;;;14.57;100.00;100975.00;5049618;28;20115;-77
2023/05/09 05:45:03;;;;;;;5.75;4.38;;;;;;;14.63;100.00;100973.53;5042159;28;20028;-76
2023/05/09 05:47:36;;;;;;;8.18;5.60;;;;;;;14.71;100.00;100977.00;5043197;28;20033;-76
2023/05/09 05:50:05;;;;;;;5.72;4.65;;;;;;;14.81;100.00;100982.09;5045801;28;20037;-76
2023/05/09 05:52:31;;;;;;;7.32;5.18;;;;;;;14.84;100.00;100982.63;5039484;28;20110;-76
2023/05/09 05:54:57;;;;;;;6.65;5.93;;;;;;;14.93;100.00;100983.47;5040455;28;20132;-76
2023/05/09 05:57:22;;;;;;;4.53;4.10;;;;;;;14.96;100.00;100992.81;5038891;28;20040;-76
2023/05/09 05:59:49;;;;;;;5.60;5.03;;;;;;;15.01;100.00;100987.91;5038252;28;20032;-76
2023/05/09 06:02:17;;;;;;;5.60;5.03;;;;;;;15.06;100.00;100989.09;5042580;28;20036;-76
2023/05/09 06:04:43;;;;;;;5.53;4.82;;;;;;;15.08;100.00;100981.88;5043407;28;20536;-76
2023/05/09 06:07:09;;;;;;;5.75;5.15;;;;;;;15.08;100.00;100975.78;5046936;28;20064;-76
2023/05/09 06:09:35;;;;;;;5.28;4.78;;;;;;;15.04;100.00;100982.34;5053951;28;20068;-76
2023/05/09 06:12:00;;;;;;;6.55;5.65;;;;;;;15.10;100.00;100979.09;5048359;28;20063;-77
2023/05/09 06:14:26;;;;;;;5.07;4.68;;;;;;;15.16;100.00;100975.78;5048804;28;20029;-76
2023/05/09 06:16:52;;;;;;;5.10;3.78;;;;;;;15.16;100.00;100976.59;5048434;28;20059;-77
2023/05/09 06:19:18;;;;;;;4.57;4.07;;;;;;;15.16;100.00;100976.59;5040762;28;20033;-77
2023/05/09 06:21:43;;;;;;;4.85;4.28;;;;;;;15.16;100.00;100975.78;5050505;28;20032;-77
2023/05/09 06:24:09;;;;;;;4.40;3.60;;;;;;;15.18;100.00;100968.56;5037097;28;20037;-77
2023/05/09 06:26:35;;;;;;;5.20;4.05;;;;;;;15.20;100.00;100967.44;5057396;28;20359;-77
2023/05/09 06:29:00;;;;;;;4.32;3.92;;;;;;;15.22;100.00;100968.09;5042567;28;20415;-76
2023/05/09 06:31:26;;;;;;;3.88;3.58;;;;;;;15.27;100.00;100970.22;5045084;28;20037;-77
2023/05/09 06:33:51;;;;;;;3.78;3.40;;;;;;;15.36;100.00;100971.06;5040662;28;20526;-77
2023/05/09 06:36:17;;;;;;;4.47;4.07;;;;;;;15.40;99.53;100972.38;5040540;28;20520;-77
2023/05/09 06:38:42;;;;;;;5.15;4.07;;;;;;;15.40;99.41;100969.75;5042471;28;20056;-76
2023/05/09 06:41:08;;;;;;;4.72;3.70;;;;;;;15.42;98.72;100960.72;5043092;28;20601;-76
2023/05/09 06:43:33;;;;;;;4.40;3.13;;;;;;;15.52;99.02;100965.81;5043172;28;20029;-77
2023/05/09 06:45:59;;;;;;;5.53;3.50;;;;;;;15.57;98.30;100968.81;5036881;28;20079;-77
2023/05/09 06:48:25;;;;;;;4.63;4.18;;;;;;;15.64;97.88;100968.94;5035240;28;20033;-77
2023/05/09 06:50:51;;;;;;;3.85;3.47;;;;;;;15.67;96.85;100984.38;5034892;28;20031;-77
2023/05/09 06:53:16;;;;;;;5.40;3.60;;;;;;;15.75;95.83;100981.75;5038978;28;20040;-78
2023/05/09 06:55:42;;;;;;;4.55;4.15;;;;;;;15.77;94.62;100983.22;5041789;28;20033;-77
2023/05/09 06:58:07;;;;;;;5.93;4.13;;;;;;;15.78;93.60;100973.53;5050524;28;20056;-77
2023/05/09 07:00:34;;;;;;;7.00;4.80;;;;;;;15.86;92.76;100970.91;5054660;28;20076;-77
2023/05/09 07:02:59;;;;;;;5.22;3.03;;;;;;;15.84;86.23;100967.63;5040326;28;20064;-76
2023/05/09 07:05:25;;;;;;;6.13;2.95;;;;;;;15.82;84.00;100962.53;5039367;28;20065;-74
2023/05/09 07:07:53;;;;;;;6.05;3.50;;;;;;;15.89;85.55;100973.19;5039513;28;20037;-75
2023/05/09 07:10:20;;;;;;;10.18;3.65;;;;;;;15.92;82.63;100975.50;5031069;28;20371;-74
2023/05/09 07:12:46;;;;;;;3.38;3.08;;;;;;;15.96;80.92;100968.09;5039045;28;20040;-73
2023/05/09 07:15:12;;;;;;;3.67;3.22;;;;;;;15.98;79.68;100972.22;5039983;28;20029;-74
2023/05/09 07:17:38;;;;;;;3.65;3.35;;;;;;;15.98;79.28;100972.22;5045994;28;20040;-75
2023/05/09 07:20:04;;;;;;;4.32;3.58;;;;;;;16.02;79.26;100965.63;5037100;28;20041;-75
2023/05/09 07:22:30;;;;;;;3.38;2.78;;;;;;;16.04;77.34;100961.03;5035798;28;20025;-74
2023/05/09 07:24:55;;;;;;;2.88;2.67;;;;;;;16.02;75.63;100962.19;5035368;28;20041;-74
2023/05/09 07:27:20;;;;;;;4.60;2.85;;;;;;;16.06;76.54;100951.16;5036538;28;20483;-74
2023/05/09 07:29:47;;;;;;;6.28;3.45;;;;;;;16.11;76.46;100946.19;5040508;28;20366;-73
2023/05/09 07:32:13;;;;;;;4.03;3.35;;;;;;;16.27;77.30;100950.59;5041447;28;20042;-74
2023/05/09 07:34:39;;;;;;;3.95;2.58;;;;;;;16.44;78.17;100954.00;5042249;28;20393;-73
2023/05/09 07:37:04;;;;;;;4.93;3.03;;;;;;;16.55;78.53;100953.59;5034017;28;20033;-74
2023/05/09 07:39:30;;;;;;;3.25;2.40;;;;;;;16.71;78.09;100955.34;5034102;28;20029;-74
2023/05/09 07:41:55;;;;;;;2.28;2.08;;;;;;;16.73;77.61;100953.38;5040001;28;20025;-72
2023/05/09 07:44:21;;;;;;;5.93;3.22;;;;;;;16.75;77.50;100946.13;5035542;28;20097;-74
2023/05/09 07:46:46;;;;;;;2.65;2.40;;;;;;;16.87;77.74;100950.84;5043270;28;20025;-74
2023/05/09 07:49:12;;;;;;;4.93;2.78;;;;;;;16.94;77.52;100948.34;5039542;28;20087;-72
2023/05/09 07:51:37;;;;;;;3.25;2.90;;;;;;;16.98;77.22;100943.53;5036692;28;20041;-72
2023/05/09 07:54:03;;;;;;;3.25;2.97;;;;;;;16.86;77.30;100951.00;5044181;28;20033;-74
2023/05/09 07:56:28;;;;;;;5.28;2.80;;;;;;;16.86;76.92;100946.56;5043597;28;20432;-73
2023/05/09 07:58:54;;;;;;;2.97;2.67;;;;;;;17.09;76.73;100954.47;5045889;28;20120;-73
2023/05/09 08:01:19;;;;;;;4.20;3.45;;;;;;;17.25;76.35;100949.09;5038589;28;20076;-72
2023/05/09 08:03:45;;;;;;;4.55;3.58;;;;;;;17.21;76.03;100944.34;5042266;28;20037;-74
2023/05/09 08:06:11;;;;;;;5.07;3.10;;;;;;;17.26;75.72;100947.28;5043389;28;20113;-73
2023/05/09 08:08:36;;;;;;;3.83;3.00;;;;;;;17.40;76.24;100953.59;5033225;28;20375;-73
2023/05/09 08:11:03;;;;;;;4.03;2.65;;;;;;;17.50;76.22;100954.97;5041387;28;20075;-75
2023/05/09 08:13:28;;;;;;;2.85;2.53;;;;;;;17.51;76.62;100946.06;5043447;28;20037;-74
2023/05/09 08:15:54;;;;;;;3.13;2.75;;;;;;;17.59;76.43;100942.53;5048857;28;20051;-73
2023/05/09 08:18:19;;;;;;;3.00;2.70;;;;;;;17.68;75.47;100946.78;5034826;28;20108;-74
2023/05/09 08:20:45;;;;;;;3.03;2.60;;;;;;;17.79;74.73;100943.72;5039376;28;20611;-74
2023/05/09 08:23:10;;;;;;;3.67;2.38;;;;;;;17.92;73.62;100937.00;5036153;28;20037;-74
2023/05/09 08:25:36;;;;;;;4.43;2.60;;;;;;;18.03;74.68;100933.91;5036293;28;20037;-73
2023/05/09 08:28:01;;;;;;;2.50;2.10;;;;;;;18.02;73.23;100932.25;5042148;28;20025;-74
2023/05/09 08:30:28;;;;;;;4.05;2.40;;;;;;;17.91;72.96;100933.56;5038909;28;20032;-74
2023/05/09 08:32:55;;;;;;;2.53;2.33;;;;;;;17.93;73.42;100936.81;5038402;28;20029;-73
2023/05/09 08:35:20;;;;;;;2.88;2.67;;;;;;;18.07;72.99;100936.00;5035906;28;20033;-73
2023/05/09 08:37:46;;;;;;;3.08;2.28;;;;;;;18.04;72.69;100933.72;5039149;28;20040;-73
2023/05/09 08:40:13;;;;;;;2.40;2.10;;;;;;;18.03;72.54;100942.63;5040268;28;20397;-73
2023/05/09 08:42:39;;;;;;;2.92;2.20;;;;;;;18.00;73.19;100942.97;5044646;28;20021;-73
2023/05/09 08:45:15;;;;;;;2.78;2.15;;;;;;;18.03;72.04;100950.53;5033182;28;20532;-75
2023/05/09 08:47:42;;;;;;;2.50;2.25;;;;;;;18.15;72.15;100951.72;5033594;28;20052;-74
2023/05/09 08:50:08;;;;;;;2.60;1.88;;;;;;;18.21;71.44;100956.28;5034145;28;20061;-74
2023/05/09 08:52:34;;;;;;;2.80;2.35;;;;;;;18.27;71.49;100956.53;5032574;28;20045;-74
2023/05/09 08:55:00;;;;;;;3.00;1.80;;;;;;;18.27;71.02;100954.72;5038835;28;20098;-73
2023/05/09 08:57:27;;;;;;;2.72;2.08;;;;;;;18.29;71.72;100955.38;5034761;28;20029;-74
2023/05/09 08:59:53;;;;;;;2.70;2.47;;;;;;;18.29;71.01;100957.19;5045712;28;20029;-73
2023/05/09 09:02:20;;;;;;;2.80;2.20;;;;;;;18.34;70.68;100962.72;5040945;28;20390;-74
2023/05/09 09:04:45;;;;;;;2.67;2.45;;;;;;;18.27;70.15;100952.09;5038720;28;20078;-73
2023/05/09 09:07:12;;;;;;;2.65;2.20;;;;;;;18.18;70.27;100948.72;5036432;28;20041;-73
2023/05/09 09:09:43;;;;;;;3.17;1.58;;;;;;;18.34;70.74;100947.72;5044147;28;20033;-70
2023/05/09 09:12:09;;;;;;;3.03;2.05;;;;;;;18.67;70.06;100952.59;5037776;28;20029;-73
2023/05/09 09:14:38;;;;;;;2.13;1.50;;;;;;;18.94;70.47;100956.34;5040176;28;20032;-73
2023/05/09 09:17:07;;;;;;;3.67;1.90;;;;;;;18.87;69.54;100945.75;5039074;28;20052;-72
2023/05/09 09:19:35;;;;;;;3.90;1.50;;;;;;;18.80;70.04;100948.31;5041786;28;20182;-72
2023/05/09 09:22:03;;;;;;;3.30;1.77;;;;;;;18.77;69.61;100946.03;5046074;28;20115;-73
2023/05/09 09:24:30;;;;;;;2.72;1.60;;;;;;;18.67;69.27;100940.22;5041352;28;20355;-73
2023/05/09 09:26:55;;;;;;;2.17;1.70;;;;;;;18.62;69.19;100939.16;5045116;28;20029;-72
2023/05/09 09:29:21;;;;;;;2.15;1.80;;;;;;;18.67;69.47;100940.22;5038832;28;20033;-73
2023/05/09 09:31:51;;;;;;;4.55;2.42;;;;;;;18.76;69.46;100936.47;5038146;28;20055;-72
2023/05/09 09:34:21;;;;;;;3.97;1.70;;;;;;;18.94;69.28;100929.94;5036237;28;20041;-73
2023/05/09 09:36:47;;;;;;;2.38;2.10;;;;;;;19.19;69.03;100925.94;5038479;28;20482;-73
2023/05/09 09:39:13;;;;;;;1.70;1.58;;;;;;;19.53;68.42;100915.47;5037825;28;20051;-74
2023/05/09 09:41:40;;;;;;;3.88;1.80;;;;;;;19.42;68.13;100926.53;5038737;28;20120;-73
2023/05/09 09:44:12;;;;;;;2.60;1.70;;;;;;;19.12;67.00;100925.03;5041620;28;20119;-75
2023/05/09 09:46:47;;;;;;;3.33;1.65;;;;;;;18.99;66.40;100922.28;5043144;28;20037;-75
2023/05/09 09:49:13;;;;;;;5.13;1.33;;;;;;;18.78;66.46;100917.81;5045137;28;20486;-73
2023/05/09 09:51:39;;;;;;;2.40;1.90;;;;;;;18.74;68.54;100919.19;5046689;28;20045;-75
2023/05/09 09:54:09;;;;;;;1.70;1.50;;;;;;;18.90;68.58;100911.84;5038761;28;20033;-74
2023/05/09 09:56:43;;;;;;;3.40;1.77;;;;;;;19.26;65.91;100910.97;5040195;28;20033;-74
2023/05/09 09:59:13;;;;;;;2.50;1.90;;;;;;;19.53;65.29;100902.25;5038668;28;20048;-73
2023/05/09 10:01:59;;;;;;;3.97;1.60;;;;;;;19.81;63.19;100909.38;5038343;28;20048;-72
2023/05/09 10:04:28;;;;;;;1.88;1.77;;;;;;;19.79;63.21;100901.63;5035445;28;20029;-73
2023/05/09 10:06:56;;;;;;;5.05;1.85;;;;;;;19.33;65.93;100896.00;5039381;28;20032;-71
2023/05/09 10:09:23;;;;;;;5.55;1.60;;;;;;;19.44;65.29;100895.44;5034614;28;20056;-72
2023/05/09 10:11:53;;;;;;;6.75;1.30;;;;;;;19.58;64.87;100895.56;5044334;28;20437;-71
2023/05/09 10:14:21;;;;;;;1.73;1.30;;;;;;;19.73;62.46;100904.22;5035761;28;20052;-72
2023/05/09 10:16:48;;;;;;;2.70;1.30;;;;;;;19.87;61.38;100903.28;5038073;28;20055;-68
2023/05/09 10:19:17;;;;;;;1.42;1.33;;;;;;;19.88;60.53;100910.19;5043454;28;20423;-69
2023/05/09 10:21:44;;;;;;;1.17;1.08;;;;;;;19.77;58.78;100903.66;5044406;28;20021;-71
2023/05/09 10:24:10;;;;;;;2.20;1.30;;;;;;;19.67;59.51;100899.72;5044478;28;20041;-70
2023/05/09 10:26:39;;;;;;;2.75;1.85;;;;;;;19.65;58.54;100893.78;5044520;28;20436;-70
2023/05/09 10:29:09;;;;;;;5.18;1.65;;;;;;;19.69;56.89;100890.56;5044913;28;20065;-70
2023/05/09 10:31:38;;;;;;;2.45;1.10;;;;;;;19.52;56.44;100887.41;5038210;28;20036;-72
2023/05/09 10:34:09;;;;;;;3.17;1.20;;;;;;;19.33;52.18;100869.56;5036772;28;20029;-71
2023/05/09 10:36:35;;;;;;;4.95;1.00;;;;;;;19.41;55.10;100893.19;5036381;28;20036;-72
2023/05/09 10:39:01;;;;;;;1.45;0.80;;;;;;;19.46;56.54;100882.03;5035352;28;21316;-73
2023/05/09 10:41:27;;;;;;;3.08;0.75;;;;;;;19.44;53.42;100884.88;5035252;28;20461;-72
2023/05/09 10:43:58;;;;;;;3.10;0.85;;;;;;;19.31;52.91;100879.50;5037319;28;20040;-72
2023/05/09 10:46:23;;;;;;;1.45;0.93;;;;;;;19.12;52.67;100874.88;5034966;28;20413;-71
2023/05/09 10:48:49;;;;;;;2.75;0.90;;;;;;;18.97;53.52;100866.19;5034876;28;20128;-75
2023/05/09 10:51:16;;;;;;;2.33;0.88;;;;;;;18.82;52.07;100868.94;5038263;28;20049;-75
2023/05/09 10:53:46;;;;;;;2.53;0.90;;;;;;;18.68;52.23;100870.59;5039695;28;20029;-72
2023/05/09 10:56:26;;;;;;;2.45;0.73;;;;;;;18.68;51.64;100859.22;5036852;28;20043;-72
2023/05/09 10:58:52;;;;;;;2.63;0.75;;;;;;;18.86;52.32;100852.53;5038102;28;20041;-71
2023/05/09 11:01:33;;;;;;;1.70;1.08;;;;;;;18.93;48.40;100843.81;5037968;28;20474;-72
2023/05/09 11:04:00;;;;;;;5.07;1.63;;;;;;;18.77;51.52;100853.66;5038059;28;20025;-70
2023/05/09 11:06:44;;;;;;;5.03;1.85;;;;;;;18.58;50.32;100846.31;5037561;28;20485;-71
2023/05/09 11:09:31;;;;;;;2.75;0.60;;;;;;;18.55;50.01;100839.59;5035083;28;20049;-72
2023/05/09 11:12:09;;;;;;;3.00;1.08;;;;;;;18.74;51.14;100832.09;5036119;28;20112;-71
2023/05/09 11:14:37;;;;;;;2.78;0.90;;;;;;;18.96;50.20;100846.91;5038749;28;20089;-71
2023/05/09 11:17:06;;;;;;;3.00;1.00;;;;;;;18.93;50.79;100843.81;5038458;28;20025;-72
2023/05/09 11:19:56;;;;;;;5.68;1.10;;;;;;;18.96;48.83;100843.44;5037033;28;20030;-70
2023/05/09 11:22:26;;;;;;;1.10;0.70;;;;;;;19.15;49.10;100840.97;5036959;28;20037;-69